sensor_id;sensor_type;location;lat;lon;timestamp;temperature;humidity
46378;DHT22;32083;47.360;9.650;2023-08-21T00:01:43;23.10;96.50
46378;DHT22;32083;47.360;9.650;2023-08-21T00:04:14;23.10;96.70
46378;DHT22;32083;47.360;9.650;2023-08-21T00:06:41;23.00;97.20
46378;DHT22;32083;47.360;9.650;2023-08-21T00:09:07;23.00;96.70
46378;DHT22;32083;47.360;9.650;2023-08-21T00:11:36;23.00;96.40
46378;DHT22;32083;47.360;9.650;2023-08-21T00:14:02;23.00;96.10
46378;DHT22;32083;47.360;9.650;2023-08-21T00:16:33;22.90;96.10
46378;DHT22;32083;47.360;9.650;2023-08-21T00:19:21;22.90;96.40
46378;DHT22;32083;47.360;9.650;2023-08-21T00:21:51;22.80;96.60
46378;DHT22;32083;47.360;9.650;2023-08-21T00:24:22;22.80;96.60
46378;DHT22;32083;47.360;9.650;2023-08-21T00:26:48;22.80;96.30
46378;DHT22;32083;47.360;9.650;2023-08-21T00:29:18;22.80;96.80
46378;DHT22;32083;47.360;9.650;2023-08-21T00:31:53;22.80;97.10
46378;DHT22;32083;47.360;9.650;2023-08-21T00:34:22;22.70;96.70
46378;DHT22;32083;47.360;9.650;2023-08-21T00:36:51;22.70;96.90
46378;DHT22;32083;47.360;9.650;2023-08-21T00:39:21;22.60;97.20
46378;DHT22;32083;47.360;9.650;2023-08-21T00:41:47;22.70;97.20
46378;DHT22;32083;47.360;9.650;2023-08-21T00:44:14;22.70;97.40
46378;DHT22;32083;47.360;9.650;2023-08-21T00:46:40;22.60;97.20
46378;DHT22;32083;47.360;9.650;2023-08-21T00:49:08;22.60;97.20
46378;DHT22;32083;47.360;9.650;2023-08-21T00:51:34;22.60;97.00
46378;DHT22;32083;47.360;9.650;2023-08-21T00:54:02;22.60;97.30
46378;DHT22;32083;47.360;9.650;2023-08-21T00:56:29;22.50;97.60
46378;DHT22;32083;47.360;9.650;2023-08-21T00:58:57;22.50;97.20
46378;DHT22;32083;47.360;9.650;2023-08-21T01:01:24;22.50;97.20
46378;DHT22;32083;47.360;9.650;2023-08-21T01:03:53;22.50;97.00
46378;DHT22;32083;47.360;9.650;2023-08-21T01:06:24;22.50;97.00
46378;DHT22;32083;47.360;9.650;2023-08-21T01:09:30;22.40;97.00
46378;DHT22;32083;47.360;9.650;2023-08-21T01:12:37;22.40;97.20
46378;DHT22;32083;47.360;9.650;2023-08-21T01:15:07;22.30;96.90
46378;DHT22;32083;47.360;9.650;2023-08-21T01:17:36;22.30;96.90
46378;DHT22;32083;47.360;9.650;2023-08-21T01:20:07;22.30;97.70
46378;DHT22;32083;47.360;9.650;2023-08-21T01:22:39;22.20;97.70
46378;DHT22;32083;47.360;9.650;2023-08-21T01:25:07;22.20;97.90
46378;DHT22;32083;47.360;9.650;2023-08-21T01:27:35;22.20;97.80
46378;DHT22;32083;47.360;9.650;2023-08-21T01:30:06;22.20;97.90
46378;DHT22;32083;47.360;9.650;2023-08-21T01:33:08;22.20;98.10
46378;DHT22;32083;47.360;9.650;2023-08-21T01:35:39;22.10;98.40
46378;DHT22;32083;47.360;9.650;2023-08-21T01:38:06;22.10;98.20
46378;DHT22;32083;47.360;9.650;2023-08-21T01:40:33;22.10;98.10
46378;DHT22;32083;47.360;9.650;2023-08-21T01:42:59;22.10;98.10
46378;DHT22;32083;47.360;9.650;2023-08-21T01:45:25;22.10;97.80
46378;DHT22;32083;47.360;9.650;2023-08-21T01:47:51;22.10;97.90
46378;DHT22;32083;47.360;9.650;2023-08-21T01:50:21;22.10;97.80
46378;DHT22;32083;47.360;9.650;2023-08-21T01:52:50;22.10;97.60
46378;DHT22;32083;47.360;9.650;2023-08-21T01:55:21;22.00;98.00
46378;DHT22;32083;47.360;9.650;2023-08-21T01:58:08;21.90;97.60
46378;DHT22;32083;47.360;9.650;2023-08-21T02:00:37;22.00;97.90
46378;DHT22;32083;47.360;9.650;2023-08-21T02:03:12;22.00;98.00
46378;DHT22;32083;47.360;9.650;2023-08-21T02:05:40;22.00;97.60
46378;DHT22;32083;47.360;9.650;2023-08-21T02:08:12;21.90;97.70
46378;DHT22;32083;47.360;9.650;2023-08-21T02:10:54;21.90;97.70
46378;DHT22;32083;47.360;9.650;2023-08-21T02:13:25;21.90;97.70
46378;DHT22;32083;47.360;9.650;2023-08-21T02:15:57;21.90;97.90
46378;DHT22;32083;47.360;9.650;2023-08-21T02:18:25;21.90;98.30
46378;DHT22;32083;47.360;9.650;2023-08-21T02:20:55;21.80;98.10
46378;DHT22;32083;47.360;9.650;2023-08-21T02:23:22;21.80;98.20
46378;DHT22;32083;47.360;9.650;2023-08-21T02:25:50;21.70;97.90
46378;DHT22;32083;47.360;9.650;2023-08-21T02:28:21;21.70;97.60
46378;DHT22;32083;47.360;9.650;2023-08-21T02:30:52;21.70;97.60
46378;DHT22;32083;47.360;9.650;2023-08-21T02:33:26;21.70;97.70
46378;DHT22;32083;47.360;9.650;2023-08-21T02:35:52;21.70;98.00
46378;DHT22;32083;47.360;9.650;2023-08-21T02:38:18;21.70;98.00
46378;DHT22;32083;47.360;9.650;2023-08-21T02:40:55;21.70;98.30
46378;DHT22;32083;47.360;9.650;2023-08-21T02:43:22;21.60;98.00
46378;DHT22;32083;47.360;9.650;2023-08-21T02:45:53;21.60;98.20
46378;DHT22;32083;47.360;9.650;2023-08-21T02:48:23;21.60;98.50
46378;DHT22;32083;47.360;9.650;2023-08-21T02:51:13;21.60;98.40
46378;DHT22;32083;47.360;9.650;2023-08-21T02:53:40;21.60;98.70
46378;DHT22;32083;47.360;9.650;2023-08-21T02:56:07;21.50;98.70
46378;DHT22;32083;47.360;9.650;2023-08-21T02:58:36;21.50;98.80
46378;DHT22;32083;47.360;9.650;2023-08-21T03:01:03;21.40;99.20
46378;DHT22;32083;47.360;9.650;2023-08-21T03:03:33;21.40;99.10
46378;DHT22;32083;47.360;9.650;2023-08-21T03:06:02;21.40;99.00
46378;DHT22;32083;47.360;9.650;2023-08-21T03:08:28;21.30;99.10
46378;DHT22;32083;47.360;9.650;2023-08-21T03:10:59;21.40;99.10
46378;DHT22;32083;47.360;9.650;2023-08-21T03:13:29;21.30;98.70
46378;DHT22;32083;47.360;9.650;2023-08-21T03:16:10;21.40;98.90
46378;DHT22;32083;47.360;9.650;2023-08-21T03:18:54;21.30;98.90
46378;DHT22;32083;47.360;9.650;2023-08-21T03:21:39;21.30;98.50
46378;DHT22;32083;47.360;9.650;2023-08-21T03:24:06;21.30;99.40
46378;DHT22;32083;47.360;9.650;2023-08-21T03:26:33;21.30;98.70
46378;DHT22;32083;47.360;9.650;2023-08-21T03:29:00;21.20;99.30
46378;DHT22;32083;47.360;9.650;2023-08-21T03:31:30;21.20;99.20
46378;DHT22;32083;47.360;9.650;2023-08-21T03:33:59;21.10;98.90
46378;DHT22;32083;47.360;9.650;2023-08-21T03:36:26;21.20;99.30
46378;DHT22;32083;47.360;9.650;2023-08-21T03:39:00;21.20;99.10
46378;DHT22;32083;47.360;9.650;2023-08-21T03:41:27;21.20;98.90
46378;DHT22;32083;47.360;9.650;2023-08-21T03:44:10;21.20;98.30
46378;DHT22;32083;47.360;9.650;2023-08-21T03:46:37;21.20;99.40
46378;DHT22;32083;47.360;9.650;2023-08-21T03:49:07;21.10;99.30
46378;DHT22;32083;47.360;9.650;2023-08-21T03:51:33;21.10;99.50
46378;DHT22;32083;47.360;9.650;2023-08-21T03:53:59;21.10;99.50
46378;DHT22;32083;47.360;9.650;2023-08-21T03:56:28;21.10;99.10
46378;DHT22;32083;47.360;9.650;2023-08-21T03:58:55;21.10;99.20
46378;DHT22;32083;47.360;9.650;2023-08-21T04:01:27;21.00;99.50
46378;DHT22;32083;47.360;9.650;2023-08-21T04:03:55;21.00;99.60
46378;DHT22;32083;47.360;9.650;2023-08-21T04:06:46;20.90;99.10
46378;DHT22;32083;47.360;9.650;2023-08-21T04:09:17;20.90;99.40
46378;DHT22;32083;47.360;9.650;2023-08-21T04:11:46;20.90;99.40
46378;DHT22;32083;47.360;9.650;2023-08-21T04:14:22;20.90;99.30
46378;DHT22;32083;47.360;9.650;2023-08-21T04:16:56;20.90;99.10
46378;DHT22;32083;47.360;9.650;2023-08-21T04:19:27;20.90;98.70
46378;DHT22;32083;47.360;9.650;2023-08-21T04:21:58;20.80;99.30
46378;DHT22;32083;47.360;9.650;2023-08-21T04:24:29;20.80;99.50
46378;DHT22;32083;47.360;9.650;2023-08-21T04:27:01;20.80;99.30
46378;DHT22;32083;47.360;9.650;2023-08-21T04:29:30;20.80;99.70
46378;DHT22;32083;47.360;9.650;2023-08-21T04:32:06;20.80;99.20
46378;DHT22;32083;47.360;9.650;2023-08-21T04:34:36;20.80;99.10
46378;DHT22;32083;47.360;9.650;2023-08-21T04:37:04;20.70;99.50
46378;DHT22;32083;47.360;9.650;2023-08-21T04:39:37;20.70;99.50
46378;DHT22;32083;47.360;9.650;2023-08-21T04:42:13;20.80;99.20
46378;DHT22;32083;47.360;9.650;2023-08-21T04:44:45;20.70;99.30
46378;DHT22;32083;47.360;9.650;2023-08-21T04:47:40;20.70;99.60
46378;DHT22;32083;47.360;9.650;2023-08-21T04:50:06;20.60;99.60
46378;DHT22;32083;47.360;9.650;2023-08-21T04:52:37;20.60;99.90
46378;DHT22;32083;47.360;9.650;2023-08-21T04:55:09;20.60;99.90
46378;DHT22;32083;47.360;9.650;2023-08-21T04:57:39;20.70;99.70
46378;DHT22;32083;47.360;9.650;2023-08-21T05:00:09;20.70;99.90
46378;DHT22;32083;47.360;9.650;2023-08-21T05:02:57;20.70;99.60
46378;DHT22;32083;47.360;9.650;2023-08-21T05:05:29;20.80;99.60
46378;DHT22;32083;47.360;9.650;2023-08-21T05:07:57;20.80;99.50
46378;DHT22;32083;47.360;9.650;2023-08-21T05:10:25;20.80;99.10
46378;DHT22;32083;47.360;9.650;2023-08-21T05:12:53;20.90;99.00
46378;DHT22;32083;47.360;9.650;2023-08-21T05:15:19;20.90;98.80
46378;DHT22;32083;47.360;9.650;2023-08-21T05:17:45;21.00;99.40
46378;DHT22;32083;47.360;9.650;2023-08-21T05:20:26;21.00;99.20
46378;DHT22;32083;47.360;9.650;2023-08-21T05:22:57;21.00;99.60
46378;DHT22;32083;47.360;9.650;2023-08-21T05:25:29;21.10;99.60
46378;DHT22;32083;47.360;9.650;2023-08-21T05:28:02;21.40;99.40
46378;DHT22;32083;47.360;9.650;2023-08-21T05:30:30;21.90;99.80
46378;DHT22;32083;47.360;9.650;2023-08-21T05:33:08;22.30;99.80
46378;DHT22;32083;47.360;9.650;2023-08-21T05:35:35;22.70;99.90
46378;DHT22;32083;47.360;9.650;2023-08-21T05:38:05;23.10;99.70
46378;DHT22;32083;47.360;9.650;2023-08-21T05:40:33;23.40;99.20
46378;DHT22;32083;47.360;9.650;2023-08-21T05:43:00;23.60;98.40
46378;DHT22;32083;47.360;9.650;2023-08-21T05:45:34;23.80;97.70
46378;DHT22;32083;47.360;9.650;2023-08-21T05:48:04;24.00;98.10
46378;DHT22;32083;47.360;9.650;2023-08-21T05:50:40;24.20;98.00
46378;DHT22;32083;47.360;9.650;2023-08-21T05:53:11;24.40;97.90
46378;DHT22;32083;47.360;9.650;2023-08-21T05:55:40;24.60;97.40
46378;DHT22;32083;47.360;9.650;2023-08-21T05:58:26;24.80;97.30
46378;DHT22;32083;47.360;9.650;2023-08-21T06:00:56;25.00;96.70
46378;DHT22;32083;47.360;9.650;2023-08-21T06:03:22;25.00;96.20
46378;DHT22;32083;47.360;9.650;2023-08-21T06:05:53;25.00;96.00
46378;DHT22;32083;47.360;9.650;2023-08-21T06:08:25;25.10;95.10
46378;DHT22;32083;47.360;9.650;2023-08-21T06:10:52;25.20;95.80
46378;DHT22;32083;47.360;9.650;2023-08-21T06:13:27;25.20;96.00
46378;DHT22;32083;47.360;9.650;2023-08-21T06:16:00;25.30;95.00
46378;DHT22;32083;47.360;9.650;2023-08-21T06:18:36;25.30;95.60
46378;DHT22;32083;47.360;9.650;2023-08-21T06:21:04;25.30;95.50
46378;DHT22;32083;47.360;9.650;2023-08-21T06:23:43;25.30;95.50
46378;DHT22;32083;47.360;9.650;2023-08-21T06:26:21;25.30;95.00
46378;DHT22;32083;47.360;9.650;2023-08-21T06:28:58;25.30;95.60
46378;DHT22;32083;47.360;9.650;2023-08-21T06:31:26;25.50;95.40
46378;DHT22;32083;47.360;9.650;2023-08-21T06:33:53;25.60;95.40
46378;DHT22;32083;47.360;9.650;2023-08-21T06:36:29;25.80;94.80
46378;DHT22;32083;47.360;9.650;2023-08-21T06:39:03;25.90;94.60
46378;DHT22;32083;47.360;9.650;2023-08-21T06:41:29;26.10;95.10
46378;DHT22;32083;47.360;9.650;2023-08-21T06:44:01;26.30;94.70
46378;DHT22;32083;47.360;9.650;2023-08-21T06:46:33;26.20;92.60
46378;DHT22;32083;47.360;9.650;2023-08-21T06:49:04;26.20;93.60
46378;DHT22;32083;47.360;9.650;2023-08-21T06:51:46;26.20;92.10
46378;DHT22;32083;47.360;9.650;2023-08-21T06:54:15;26.20;92.10
46378;DHT22;32083;47.360;9.650;2023-08-21T06:57:04;26.30;93.60
46378;DHT22;32083;47.360;9.650;2023-08-21T06:59:30;26.30;93.40
46378;DHT22;32083;47.360;9.650;2023-08-21T07:02:01;26.20;92.30
46378;DHT22;32083;47.360;9.650;2023-08-21T07:04:30;26.10;92.80
46378;DHT22;32083;47.360;9.650;2023-08-21T07:07:00;26.00;92.70
46378;DHT22;32083;47.360;9.650;2023-08-21T07:09:36;26.10;93.50
46378;DHT22;32083;47.360;9.650;2023-08-21T07:12:05;26.20;92.90
46378;DHT22;32083;47.360;9.650;2023-08-21T07:14:33;26.40;92.80
46378;DHT22;32083;47.360;9.650;2023-08-21T07:17:04;26.50;93.00
46378;DHT22;32083;47.360;9.650;2023-08-21T07:19:29;26.50;93.20
46378;DHT22;32083;47.360;9.650;2023-08-21T07:21:55;26.40;93.20
46378;DHT22;32083;47.360;9.650;2023-08-21T07:24:21;26.40;92.40
46378;DHT22;32083;47.360;9.650;2023-08-21T07:26:50;26.30;92.90
46378;DHT22;32083;47.360;9.650;2023-08-21T07:29:19;26.20;92.40
46378;DHT22;32083;47.360;9.650;2023-08-21T07:31:57;26.40;93.00
46378;DHT22;32083;47.360;9.650;2023-08-21T07:34:26;26.60;92.40
46378;DHT22;32083;47.360;9.650;2023-08-21T07:36:57;26.70;93.00
46378;DHT22;32083;47.360;9.650;2023-08-21T07:39:28;26.80;92.00
46378;DHT22;32083;47.360;9.650;2023-08-21T07:41:56;26.90;91.90
46378;DHT22;32083;47.360;9.650;2023-08-21T07:44:21;27.00;92.50
46378;DHT22;32083;47.360;9.650;2023-08-21T07:46:47;26.80;91.10
46378;DHT22;32083;47.360;9.650;2023-08-21T07:49:22;26.90;91.30
46378;DHT22;32083;47.360;9.650;2023-08-21T07:51:55;27.00;91.70
46378;DHT22;32083;47.360;9.650;2023-08-21T07:54:21;27.20;91.70
46378;DHT22;32083;47.360;9.650;2023-08-21T07:56:50;27.20;91.40
46378;DHT22;32083;47.360;9.650;2023-08-21T07:59:17;27.30;91.70
46378;DHT22;32083;47.360;9.650;2023-08-21T08:01:46;27.10;90.80
46378;DHT22;32083;47.360;9.650;2023-08-21T08:04:12;27.10;91.30
46378;DHT22;32083;47.360;9.650;2023-08-21T08:06:37;26.90;89.90
46378;DHT22;32083;47.360;9.650;2023-08-21T08:09:06;27.10;91.20
46378;DHT22;32083;47.360;9.650;2023-08-21T08:11:31;27.00;90.00
46378;DHT22;32083;47.360;9.650;2023-08-21T08:14:00;27.10;90.30
46378;DHT22;32083;47.360;9.650;2023-08-21T08:16:27;27.30;90.50
46378;DHT22;32083;47.360;9.650;2023-08-21T08:18:56;27.30;90.50
46378;DHT22;32083;47.360;9.650;2023-08-21T08:21:21;27.30;89.80
46378;DHT22;32083;47.360;9.650;2023-08-21T08:23:52;27.40;90.30
46378;DHT22;32083;47.360;9.650;2023-08-21T08:26:20;27.50;91.00
46378;DHT22;32083;47.360;9.650;2023-08-21T08:28:54;27.60;90.60
46378;DHT22;32083;47.360;9.650;2023-08-21T08:31:21;27.50;90.30
46378;DHT22;32083;47.360;9.650;2023-08-21T08:33:49;27.50;90.80
46378;DHT22;32083;47.360;9.650;2023-08-21T08:36:17;27.60;90.80
46378;DHT22;32083;47.360;9.650;2023-08-21T08:38:43;27.50;90.10
46378;DHT22;32083;47.360;9.650;2023-08-21T08:41:12;27.50;90.30
46378;DHT22;32083;47.360;9.650;2023-08-21T08:43:56;27.60;90.30
46378;DHT22;32083;47.360;9.650;2023-08-21T08:46:24;27.70;90.30
46378;DHT22;32083;47.360;9.650;2023-08-21T08:48:51;27.70;90.40
46378;DHT22;32083;47.360;9.650;2023-08-21T08:51:18;27.80;90.30
46378;DHT22;32083;47.360;9.650;2023-08-21T08:53:45;27.80;90.10
46378;DHT22;32083;47.360;9.650;2023-08-21T08:56:11;27.80;90.50
46378;DHT22;32083;47.360;9.650;2023-08-21T08:58:37;27.80;89.20
46378;DHT22;32083;47.360;9.650;2023-08-21T09:01:08;27.80;89.90
46378;DHT22;32083;47.360;9.650;2023-08-21T09:03:36;27.70;89.40
46378;DHT22;32083;47.360;9.650;2023-08-21T09:06:05;27.70;89.50
46378;DHT22;32083;47.360;9.650;2023-08-21T09:08:33;27.80;90.40
46378;DHT22;32083;47.360;9.650;2023-08-21T09:11:04;27.80;90.60
46378;DHT22;32083;47.360;9.650;2023-08-21T09:13:32;27.80;90.00
46378;DHT22;32083;47.360;9.650;2023-08-21T09:16:05;27.80;88.50
46378;DHT22;32083;47.360;9.650;2023-08-21T09:18:35;27.90;90.40
46378;DHT22;32083;47.360;9.650;2023-08-21T09:21:06;27.90;89.50
46378;DHT22;32083;47.360;9.650;2023-08-21T09:23:32;27.90;90.40
46378;DHT22;32083;47.360;9.650;2023-08-21T09:25:58;28.10;88.70
46378;DHT22;32083;47.360;9.650;2023-08-21T09:28:25;28.10;89.70
46378;DHT22;32083;47.360;9.650;2023-08-21T09:30:54;28.10;90.00
46378;DHT22;32083;47.360;9.650;2023-08-21T09:33:24;28.10;88.10
46378;DHT22;32083;47.360;9.650;2023-08-21T09:35:54;28.10;87.70
46378;DHT22;32083;47.360;9.650;2023-08-21T09:38:21;28.20;89.80
46378;DHT22;32083;47.360;9.650;2023-08-21T09:40:52;28.10;88.80
46378;DHT22;32083;47.360;9.650;2023-08-21T09:43:26;28.30;89.60
46378;DHT22;32083;47.360;9.650;2023-08-21T09:45:54;28.30;87.40
46378;DHT22;32083;47.360;9.650;2023-08-21T09:48:27;28.30;87.10
46378;DHT22;32083;47.360;9.650;2023-08-21T09:50:53;28.30;87.60
46378;DHT22;32083;47.360;9.650;2023-08-21T09:53:22;28.30;87.10
46378;DHT22;32083;47.360;9.650;2023-08-21T09:55:53;28.30;89.00
46378;DHT22;32083;47.360;9.650;2023-08-21T09:58:19;28.30;89.50
46378;DHT22;32083;47.360;9.650;2023-08-21T10:00:49;28.40;88.40
46378;DHT22;32083;47.360;9.650;2023-08-21T10:03:20;28.40;89.00
46378;DHT22;32083;47.360;9.650;2023-08-21T10:05:48;28.40;86.40
46378;DHT22;32083;47.360;9.650;2023-08-21T10:08:20;28.30;87.10
46378;DHT22;32083;47.360;9.650;2023-08-21T10:10:51;28.40;87.70
46378;DHT22;32083;47.360;9.650;2023-08-21T10:13:26;28.40;86.40
46378;DHT22;32083;47.360;9.650;2023-08-21T10:15:52;28.40;87.20
46378;DHT22;32083;47.360;9.650;2023-08-21T10:18:24;28.40;86.90
46378;DHT22;32083;47.360;9.650;2023-08-21T10:20:55;28.40;85.20
46378;DHT22;32083;47.360;9.650;2023-08-21T10:23:30;28.50;87.00
46378;DHT22;32083;47.360;9.650;2023-08-21T10:25:59;28.50;84.90
46378;DHT22;32083;47.360;9.650;2023-08-21T10:28:55;28.60;84.80
46378;DHT22;32083;47.360;9.650;2023-08-21T10:31:34;28.70;84.60
46378;DHT22;32083;47.360;9.650;2023-08-21T10:34:05;28.80;86.00
46378;DHT22;32083;47.360;9.650;2023-08-21T10:37:19;28.90;84.20
46378;DHT22;32083;47.360;9.650;2023-08-21T10:39:27;28.90;84.70
46378;DHT22;32083;47.360;9.650;2023-08-21T10:50:01;29.10;88.30
46378;DHT22;32083;47.360;9.650;2023-08-21T10:52:39;29.10;90.30
46378;DHT22;32083;47.360;9.650;2023-08-21T10:55:11;29.30;89.00
46378;DHT22;32083;47.360;9.650;2023-08-21T10:57:40;29.30;90.10
46378;DHT22;32083;47.360;9.650;2023-08-21T11:00:13;29.40;90.40
46378;DHT22;32083;47.360;9.650;2023-08-21T11:02:48;29.50;90.50
46378;DHT22;32083;47.360;9.650;2023-08-21T11:05:16;29.50;91.20
46378;DHT22;32083;47.360;9.650;2023-08-21T11:07:45;29.60;90.50
46378;DHT22;32083;47.360;9.650;2023-08-21T11:10:18;29.60;89.30
46378;DHT22;32083;47.360;9.650;2023-08-21T11:12:54;29.70;90.00
46378;DHT22;32083;47.360;9.650;2023-08-21T11:15:21;29.70;90.20
46378;DHT22;32083;47.360;9.650;2023-08-21T11:18:01;29.70;88.00
46378;DHT22;32083;47.360;9.650;2023-08-21T11:20:36;29.70;87.70
46378;DHT22;32083;47.360;9.650;2023-08-21T11:23:06;29.80;87.50
46378;DHT22;32083;47.360;9.650;2023-08-21T11:25:34;29.80;89.30
46378;DHT22;32083;47.360;9.650;2023-08-21T11:28:01;29.80;87.70
46378;DHT22;32083;47.360;9.650;2023-08-21T11:30:32;29.80;87.00
46378;DHT22;32083;47.360;9.650;2023-08-21T11:33:07;29.80;88.70
46378;DHT22;32083;47.360;9.650;2023-08-21T11:35:36;29.80;87.70
46378;DHT22;32083;47.360;9.650;2023-08-21T11:38:06;29.90;88.60
46378;DHT22;32083;47.360;9.650;2023-08-21T11:40:36;29.90;88.10
46378;DHT22;32083;47.360;9.650;2023-08-21T11:43:03;30.00;88.80
46378;DHT22;32083;47.360;9.650;2023-08-21T11:45:30;30.00;87.20
46378;DHT22;32083;47.360;9.650;2023-08-21T11:47:58;30.10;86.20
46378;DHT22;32083;47.360;9.650;2023-08-21T11:50:43;30.20;86.90
46378;DHT22;32083;47.360;9.650;2023-08-21T11:53:14;30.20;85.80
46378;DHT22;32083;47.360;9.650;2023-08-21T11:55:43;30.20;87.00
46378;DHT22;32083;47.360;9.650;2023-08-21T11:58:16;30.20;89.00
46378;DHT22;32083;47.360;9.650;2023-08-21T12:00:43;30.20;87.20
46378;DHT22;32083;47.360;9.650;2023-08-21T12:03:10;30.20;86.60
46378;DHT22;32083;47.360;9.650;2023-08-21T12:05:44;30.20;86.40
46378;DHT22;32083;47.360;9.650;2023-08-21T12:08:12;30.20;87.00
46378;DHT22;32083;47.360;9.650;2023-08-21T12:10:40;30.30;87.10
46378;DHT22;32083;47.360;9.650;2023-08-21T12:13:06;30.20;86.50
46378;DHT22;32083;47.360;9.650;2023-08-21T12:15:35;30.20;86.10
46378;DHT22;32083;47.360;9.650;2023-08-21T12:18:03;30.30;87.10
46378;DHT22;32083;47.360;9.650;2023-08-21T12:20:38;30.30;87.50
46378;DHT22;32083;47.360;9.650;2023-08-21T12:23:07;30.40;84.60
46378;DHT22;32083;47.360;9.650;2023-08-21T12:25:33;30.40;84.40
46378;DHT22;32083;47.360;9.650;2023-08-21T12:28:00;30.50;85.60
46378;DHT22;32083;47.360;9.650;2023-08-21T12:30:26;30.50;86.60
46378;DHT22;32083;47.360;9.650;2023-08-21T12:32:59;30.60;85.80
46378;DHT22;32083;47.360;9.650;2023-08-21T12:35:25;30.60;83.60
46378;DHT22;32083;47.360;9.650;2023-08-21T12:37:55;30.70;86.70
46378;DHT22;32083;47.360;9.650;2023-08-21T12:40:23;30.70;87.00
46378;DHT22;32083;47.360;9.650;2023-08-21T12:42:49;30.80;86.90
46378;DHT22;32083;47.360;9.650;2023-08-21T12:45:28;30.80;84.60
46378;DHT22;32083;47.360;9.650;2023-08-21T12:47:59;30.90;85.50
46378;DHT22;32083;47.360;9.650;2023-08-21T12:50:26;30.90;83.70
46378;DHT22;32083;47.360;9.650;2023-08-21T12:52:52;30.90;84.50
46378;DHT22;32083;47.360;9.650;2023-08-21T12:55:19;30.90;83.00
46378;DHT22;32083;47.360;9.650;2023-08-21T12:57:48;30.90;83.20
46378;DHT22;32083;47.360;9.650;2023-08-21T13:00:16;31.00;82.80
46378;DHT22;32083;47.360;9.650;2023-08-21T13:02:46;31.00;82.50
46378;DHT22;32083;47.360;9.650;2023-08-21T13:05:12;31.10;82.00
46378;DHT22;32083;47.360;9.650;2023-08-21T13:07:38;31.10;81.40
46378;DHT22;32083;47.360;9.650;2023-08-21T13:10:07;31.20;83.20
46378;DHT22;32083;47.360;9.650;2023-08-21T13:12:35;31.40;81.60
46378;DHT22;32083;47.360;9.650;2023-08-21T13:15:02;31.50;80.90
46378;DHT22;32083;47.360;9.650;2023-08-21T13:17:28;31.50;80.40
46378;DHT22;32083;47.360;9.650;2023-08-21T13:19:54;31.50;79.60
46378;DHT22;32083;47.360;9.650;2023-08-21T13:22:20;31.70;80.90
46378;DHT22;32083;47.360;9.650;2023-08-21T13:24:46;31.70;82.20
46378;DHT22;32083;47.360;9.650;2023-08-21T13:27:13;31.80;82.30
46378;DHT22;32083;47.360;9.650;2023-08-21T13:29:40;31.90;80.80
46378;DHT22;32083;47.360;9.650;2023-08-21T13:32:06;32.00;80.90
46378;DHT22;32083;47.360;9.650;2023-08-21T13:35:01;32.00;80.50
46378;DHT22;32083;47.360;9.650;2023-08-21T13:38:33;32.00;78.60
46378;DHT22;32083;47.360;9.650;2023-08-21T13:41:36;32.10;78.10
46378;DHT22;32083;47.360;9.650;2023-08-21T13:44:52;32.10;79.50
46378;DHT22;32083;47.360;9.650;2023-08-21T13:50:19;32.20;79.70
46378;DHT22;32083;47.360;9.650;2023-08-21T13:52:46;32.30;79.00
46378;DHT22;32083;47.360;9.650;2023-08-21T13:55:14;32.40;80.30
46378;DHT22;32083;47.360;9.650;2023-08-21T13:57:40;32.40;78.90
46378;DHT22;32083;47.360;9.650;2023-08-21T14:00:08;32.50;79.20
46378;DHT22;32083;47.360;9.650;2023-08-21T14:02:37;32.50;77.10
46378;DHT22;32083;47.360;9.650;2023-08-21T14:05:04;32.50;76.90
46378;DHT22;32083;47.360;9.650;2023-08-21T14:07:31;32.50;79.40
46378;DHT22;32083;47.360;9.650;2023-08-21T14:09:57;32.70;78.70
46378;DHT22;32083;47.360;9.650;2023-08-21T14:12:23;32.60;76.50
46378;DHT22;32083;47.360;9.650;2023-08-21T14:14:49;32.50;76.80
46378;DHT22;32083;47.360;9.650;2023-08-21T14:17:15;32.50;76.30
46378;DHT22;32083;47.360;9.650;2023-08-21T14:19:41;32.50;77.10
46378;DHT22;32083;47.360;9.650;2023-08-21T14:22:07;32.50;77.30
46378;DHT22;32083;47.360;9.650;2023-08-21T14:24:34;32.50;77.90
46378;DHT22;32083;47.360;9.650;2023-08-21T14:27:00;32.60;78.00
46378;DHT22;32083;47.360;9.650;2023-08-21T14:29:26;32.70;76.90
46378;DHT22;32083;47.360;9.650;2023-08-21T14:31:51;32.70;77.10
46378;DHT22;32083;47.360;9.650;2023-08-21T14:34:21;32.60;76.90
46378;DHT22;32083;47.360;9.650;2023-08-21T14:36:50;32.60;75.30
46378;DHT22;32083;47.360;9.650;2023-08-21T14:39:16;32.70;76.70
46378;DHT22;32083;47.360;9.650;2023-08-21T14:41:42;32.70;76.10
46378;DHT22;32083;47.360;9.650;2023-08-21T14:44:09;32.70;76.90
46378;DHT22;32083;47.360;9.650;2023-08-21T14:46:35;32.70;75.50
46378;DHT22;32083;47.360;9.650;2023-08-21T14:49:00;32.70;76.00
46378;DHT22;32083;47.360;9.650;2023-08-21T14:51:27;32.70;76.30
46378;DHT22;32083;47.360;9.650;2023-08-21T14:53:53;32.70;76.60
46378;DHT22;32083;47.360;9.650;2023-08-21T14:56:22;32.70;76.80
46378;DHT22;32083;47.360;9.650;2023-08-21T14:58:48;32.70;74.00
46378;DHT22;32083;47.360;9.650;2023-08-21T15:01:14;32.70;74.50
46378;DHT22;32083;47.360;9.650;2023-08-21T15:03:42;32.70;75.80
46378;DHT22;32083;47.360;9.650;2023-08-21T15:06:08;32.70;76.80
46378;DHT22;32083;47.360;9.650;2023-08-21T15:08:34;32.80;76.60
46378;DHT22;32083;47.360;9.650;2023-08-21T15:11:00;32.80;74.70
46378;DHT22;32083;47.360;9.650;2023-08-21T15:13:26;32.80;75.50
46378;DHT22;32083;47.360;9.650;2023-08-21T15:15:52;32.80;76.40
46378;DHT22;32083;47.360;9.650;2023-08-21T15:18:18;32.80;78.10
46378;DHT22;32083;47.360;9.650;2023-08-21T15:20:44;32.80;75.90
46378;DHT22;32083;47.360;9.650;2023-08-21T15:23:10;32.70;75.70
46378;DHT22;32083;47.360;9.650;2023-08-21T15:25:36;32.70;76.20
46378;DHT22;32083;47.360;9.650;2023-08-21T15:28:01;32.80;76.60
46378;DHT22;32083;47.360;9.650;2023-08-21T15:30:28;32.80;76.40
46378;DHT22;32083;47.360;9.650;2023-08-21T15:32:54;32.70;74.40
46378;DHT22;32083;47.360;9.650;2023-08-21T15:35:20;32.70;75.80
46378;DHT22;32083;47.360;9.650;2023-08-21T15:37:46;32.70;77.30
46378;DHT22;32083;47.360;9.650;2023-08-21T15:40:12;32.70;76.70
46378;DHT22;32083;47.360;9.650;2023-08-21T15:42:37;32.70;77.00
46378;DHT22;32083;47.360;9.650;2023-08-21T15:45:04;32.70;76.70
46378;DHT22;32083;47.360;9.650;2023-08-21T15:47:30;32.70;77.30
46378;DHT22;32083;47.360;9.650;2023-08-21T15:49:55;32.60;75.50
46378;DHT22;32083;47.360;9.650;2023-08-21T15:52:22;32.60;75.90
46378;DHT22;32083;47.360;9.650;2023-08-21T15:54:48;32.60;77.50
46378;DHT22;32083;47.360;9.650;2023-08-21T15:57:17;32.60;76.10
46378;DHT22;32083;47.360;9.650;2023-08-21T15:59:43;32.60;77.50
46378;DHT22;32083;47.360;9.650;2023-08-21T16:02:09;32.60;77.10